Time;durP1;ratioP1;P1;durP2;ratioP2;P2;SDS_P1;SDS_P2;PMS_P1;PMS_P2;Temp;Humidity;BMP_temperature;BMP_pressure;BME280_temperature;BME280_humidity;BME280_pressure;Samples;Min_cycle;Max_cycle;Signal;HPM_P1;HPM_P2
2022/08/08 00:00:50;;;;;;;1.00;1.00;;;;;;;;;;1842115;74;26231;-87
2022/08/08 00:03:18;;;;;;;0.90;0.90;;;;;;;;;;1856259;74;26364;-87
2022/08/08 00:05:47;;;;;;;1.27;1.07;;;;;;;;;;1865453;75;26202;-87
2022/08/08 00:08:25;;;;;;;1.07;1.07;;;;;;;;;;1875335;75;26240;-88
2022/08/08 00:11:09;;;;;;;1.00;1.00;;;;;;;;;;1861247;74;26244;-87
2022/08/08 00:13:55;;;;;;;0.88;0.88;;;;;;;;;;1872583;75;26765;-87
2022/08/08 00:16:26;;;;;;;0.90;0.90;;;;;;;;;;1856721;75;26211;-87
2022/08/08 00:19:01;;;;;;;0.90;0.90;;;;;;;;;;1869756;75;26216;-87
2022/08/08 00:21:29;;;;;;;1.05;1.05;;;;;;;;;;1875440;75;26601;-87
2022/08/08 00:23:58;;;;;;;1.00;1.00;;;;;;;;;;1878946;75;26738;-87
2022/08/08 00:26:33;;;;;;;1.00;1.00;;;;;;;;;;1865544;75;26275;-87
2022/08/08 00:29:07;;;;;;;1.05;1.05;;;;;;;;;;1879115;75;26321;-87
2022/08/08 00:31:36;;;;;;;1.00;1.00;;;;;;;;;;1866900;75;26262;-88
2022/08/08 00:37:09;;;;;;;1.00;1.00;;;;;;;;;;1874419;75;26674;-87
2022/08/08 00:39:53;;;;;;;1.00;1.00;;;;;;;;;;1874284;75;26363;-88
2022/08/08 00:42:22;;;;;;;1.00;1.00;;;;;;;;;;1884445;74;26656;-88
2022/08/08 00:44:50;;;;;;;1.00;1.00;;;;;;;;;;1829930;75;26213;-87
2022/08/08 00:47:31;;;;;;;1.00;1.00;;;;;;;;;;1865707;75;26253;-87
2022/08/08 00:50:09;;;;;;;1.10;1.10;;;;;;;;;;1841828;75;26265;-88
2022/08/08 00:52:55;;;;;;;1.00;1.00;;;;;;;;;;1873497;74;26347;-87
2022/08/08 00:55:23;;;;;;;1.10;1.10;;;;;;;;;;1881540;75;26374;-87
2022/08/08 00:58:08;;;;;;;0.98;0.98;;;;;;;;;;1896804;74;26211;-87
2022/08/08 01:00:37;;;;;;;1.10;1.10;;;;;;;;;;1870996;75;26349;-88
2022/08/08 01:03:21;;;;;;;1.10;1.10;;;;;;;;;;1864996;75;26289;-89
2022/08/08 01:06:05;;;;;;;1.20;1.20;;;;;;;;;;1899391;72;26316;-88
2022/08/08 01:08:50;;;;;;;1.10;1.10;;;;;;;;;;1876535;74;26218;-88
2022/08/08 01:11:18;;;;;;;1.12;1.12;;;;;;;;;;1859055;74;26296;-88
2022/08/08 01:13:47;;;;;;;1.20;1.20;;;;;;;;;;1868002;73;26211;-88
2022/08/08 01:16:19;;;;;;;1.10;1.10;;;;;;;;;;1870137;72;26217;-88
2022/08/08 01:18:54;;;;;;;1.10;1.10;;;;;;;;;;1877635;74;26283;-88
2022/08/08 01:21:39;;;;;;;1.10;1.10;;;;;;;;;;1894278;73;26265;-88
2022/08/08 01:24:17;;;;;;;1.10;1.10;;;;;;;;;;1879661;74;26273;-88
2022/08/08 01:26:49;;;;;;;1.17;1.17;;;;;;;;;;1890772;72;26194;-86
2022/08/08 01:29:21;;;;;;;1.25;1.25;;;;;;;;;;1864493;74;26222;-87
2022/08/08 01:32:08;;;;;;;1.20;1.20;;;;;;;;;;1864966;75;26222;-87
2022/08/08 01:34:45;;;;;;;1.00;1.00;;;;;;;;;;1866097;74;26229;-87
2022/08/08 01:37:26;;;;;;;1.17;1.17;;;;;;;;;;1882548;74;26214;-87
2022/08/08 01:39:55;;;;;;;1.22;1.22;;;;;;;;;;1877501;75;26234;-87
2022/08/08 01:42:23;;;;;;;1.20;1.20;;;;;;;;;;1864001;76;26250;-88
2022/08/08 01:45:05;;;;;;;1.20;1.20;;;;;;;;;;1888104;75;26249;-87
2022/08/08 01:47:34;;;;;;;1.57;1.50;;;;;;;;;;1873090;74;27022;-88
2022/08/08 01:50:19;;;;;;;1.40;1.27;;;;;;;;;;1862407;75;26664;-88
2022/08/08 01:52:54;;;;;;;1.20;1.20;;;;;;;;;;1858367;74;26726;-88
2022/08/08 01:55:27;;;;;;;1.35;1.35;;;;;;;;;;1860584;74;26799;-87
2022/08/08 01:58:11;;;;;;;1.27;1.27;;;;;;;;;;1872097;74;26272;-87
2022/08/08 02:00:46;;;;;;;1.20;1.20;;;;;;;;;;1885642;74;27139;-87
2022/08/08 02:03:23;;;;;;;1.30;1.30;;;;;;;;;;1884342;74;26344;-88
2022/08/08 02:05:58;;;;;;;1.30;1.30;;;;;;;;;;1880576;75;26334;-87
2022/08/08 02:08:44;;;;;;;1.20;1.20;;;;;;;;;;1902777;75;26705;-88
2022/08/08 02:11:13;;;;;;;1.40;1.40;;;;;;;;;;1864890;75;26311;-88
2022/08/08 02:13:53;;;;;;;1.40;1.40;;;;;;;;;;1864066;74;26234;-87
2022/08/08 02:16:38;;;;;;;1.37;1.37;;;;;;;;;;1870048;75;26293;-87
2022/08/08 02:19:07;;;;;;;1.30;1.30;;;;;;;;;;1891984;74;26242;-88
2022/08/08 02:24:26;;;;;;;1.35;1.35;;;;;;;;;;1884558;75;26294;-88
2022/08/08 02:26:55;;;;;;;1.27;1.27;;;;;;;;;;1889018;74;26203;-88
2022/08/08 02:29:42;;;;;;;1.42;1.42;;;;;;;;;;1852779;74;26268;-88
2022/08/08 02:32:12;;;;;;;1.20;1.20;;;;;;;;;;1869659;75;26341;-88
2022/08/08 02:34:46;;;;;;;1.30;1.30;;;;;;;;;;1882454;75;26269;-88
2022/08/08 02:37:21;;;;;;;1.30;1.30;;;;;;;;;;1888100;75;26197;-88
2022/08/08 02:39:59;;;;;;;1.40;1.40;;;;;;;;;;1884341;75;26329;-88
2022/08/08 02:42:34;;;;;;;1.27;1.27;;;;;;;;;;1876281;75;26294;-87
2022/08/08 02:45:19;;;;;;;1.20;1.20;;;;;;;;;;1852537;75;26248;-88
2022/08/08 02:48:04;;;;;;;1.40;1.40;;;;;;;;;;1900354;75;26302;-88
2022/08/08 02:50:49;;;;;;;1.40;1.40;;;;;;;;;;1878258;74;26270;-88
2022/08/08 02:53:24;;;;;;;1.30;1.30;;;;;;;;;;1859176;74;26268;-88
2022/08/08 02:55:55;;;;;;;1.27;1.27;;;;;;;;;;1865393;74;26249;-88
2022/08/08 02:58:29;;;;;;;1.50;1.50;;;;;;;;;;1900041;74;26225;-87
2022/08/08 03:01:15;;;;;;;1.40;1.40;;;;;;;;;;1884319;74;26667;-87
2022/08/08 03:03:44;;;;;;;1.40;1.40;;;;;;;;;;1884603;74;26342;-87
2022/08/08 03:06:29;;;;;;;1.50;1.50;;;;;;;;;;1869348;75;26709;-87
2022/08/08 03:08:58;;;;;;;1.50;1.50;;;;;;;;;;1863555;75;26233;-87
2022/08/08 03:11:29;;;;;;;1.52;1.52;;;;;;;;;;1885686;74;26327;-87
2022/08/08 03:14:14;;;;;;;1.60;1.60;;;;;;;;;;1846173;75;26217;-88
2022/08/08 03:16:58;;;;;;;1.60;1.60;;;;;;;;;;1848332;75;26218;-87
2022/08/08 03:19:43;;;;;;;1.52;1.52;;;;;;;;;;1869207;75;26221;-88
2022/08/08 03:22:10;;;;;;;1.70;1.70;;;;;;;;;;1872239;75;26261;-87
2022/08/08 03:24:37;;;;;;;1.40;1.40;;;;;;;;;;1877553;75;26736;-88
2022/08/08 03:27:06;;;;;;;2.15;1.40;;;;;;;;;;1881950;74;27449;-87
2022/08/08 03:29:35;;;;;;;1.70;1.70;;;;;;;;;;1872333;74;26695;-89
2022/08/08 03:34:47;;;;;;;1.40;1.40;;;;;;;;;;1882195;75;26174;-88
2022/08/08 03:37:18;;;;;;;1.60;1.60;;;;;;;;;;1862273;74;26295;-88
2022/08/08 03:39:45;;;;;;;1.60;1.60;;;;;;;;;;1882736;75;26254;-88
2022/08/08 03:42:16;;;;;;;1.35;1.35;;;;;;;;;;1883725;74;26697;-87
2022/08/08 03:44:44;;;;;;;1.60;1.60;;;;;;;;;;1852774;74;26240;-87
2022/08/08 03:47:11;;;;;;;1.62;1.60;;;;;;;;;;1874644;74;26737;-88
2022/08/08 03:49:38;;;;;;;1.52;1.52;;;;;;;;;;1868504;74;26300;-87
2022/08/08 03:52:06;;;;;;;1.50;1.50;;;;;;;;;;1888204;74;26336;-87
2022/08/08 03:54:33;;;;;;;1.55;1.55;;;;;;;;;;1902213;74;26183;-87
2022/08/08 03:57:00;;;;;;;1.40;1.40;;;;;;;;;;1893770;74;26211;-88
2022/08/08 03:59:30;;;;;;;1.50;1.50;;;;;;;;;;1889712;74;26774;-87
2022/08/08 04:01:58;;;;;;;1.55;1.55;;;;;;;;;;1860396;75;25331;-88
2022/08/08 04:04:25;;;;;;;1.90;1.90;;;;;;;;;;1874400;74;26299;-88
2022/08/08 04:06:56;;;;;;;1.67;1.67;;;;;;;;;;1879570;74;26810;-87
2022/08/08 04:09:25;;;;;;;1.52;1.52;;;;;;;;;;1883079;75;26286;-87
2022/08/08 04:11:52;;;;;;;1.50;1.50;;;;;;;;;;1873356;75;26257;-88
2022/08/08 04:14:19;;;;;;;1.67;1.67;;;;;;;;;;1900618;74;26233;-87
2022/08/08 04:16:47;;;;;;;1.70;1.70;;;;;;;;;;1890958;74;26267;-88
2022/08/08 04:19:14;;;;;;;1.50;1.50;;;;;;;;;;1865240;75;26219;-87
2022/08/08 04:21:41;;;;;;;1.60;1.60;;;;;;;;;;1881820;74;26932;-87
2022/08/08 04:24:09;;;;;;;1.80;1.70;;;;;;;;;;1863107;74;26272;-88
2022/08/08 04:26:36;;;;;;;1.85;1.75;;;;;;;;;;1868968;74;26279;-88
2022/08/08 04:29:03;;;;;;;1.70;1.70;;;;;;;;;;1879665;74;26786;-88
2022/08/08 04:31:30;;;;;;;1.70;1.70;;;;;;;;;;1853811;74;26260;-87
2022/08/08 04:33:58;;;;;;;1.85;1.85;;;;;;;;;;1885287;75;26257;-88
2022/08/08 04:36:25;;;;;;;1.60;1.60;;;;;;;;;;1877160;75;26260;-88
2022/08/08 04:38:52;;;;;;;1.65;1.65;;;;;;;;;;1874741;74;26269;-88
2022/08/08 04:41:20;;;;;;;1.82;1.80;;;;;;;;;;1831213;77;27072;-87
2022/08/08 04:43:47;;;;;;;1.80;1.80;;;;;;;;;;1877966;75;26666;-87
2022/08/08 04:46:14;;;;;;;1.55;1.55;;;;;;;;;;1878847;74;26827;-87
2022/08/08 04:48:42;;;;;;;1.80;1.80;;;;;;;;;;1866335;75;26253;-88
2022/08/08 04:51:10;;;;;;;1.90;1.85;;;;;;;;;;1870768;74;26761;-87
2022/08/08 04:53:38;;;;;;;1.87;1.87;;;;;;;;;;1875548;75;26367;-87
2022/08/08 04:56:05;;;;;;;1.67;1.67;;;;;;;;;;1868114;74;26242;-88
2022/08/08 04:58:32;;;;;;;1.70;1.70;;;;;;;;;;1865573;74;26668;-88
2022/08/08 05:00:59;;;;;;;1.85;1.80;;;;;;;;;;1874741;74;26270;-88
2022/08/08 05:03:27;;;;;;;1.77;1.77;;;;;;;;;;1865475;74;26305;-88
2022/08/08 05:05:54;;;;;;;1.60;1.60;;;;;;;;;;1856325;74;26300;-88
2022/08/08 05:08:21;;;;;;;1.75;1.75;;;;;;;;;;1859927;74;26763;-87
2022/08/08 05:10:49;;;;;;;1.90;1.90;;;;;;;;;;1857740;74;26272;-88
2022/08/08 05:13:16;;;;;;;1.80;1.80;;;;;;;;;;1865086;74;26347;-87
2022/08/08 05:15:43;;;;;;;1.80;1.80;;;;;;;;;;1876842;74;26316;-88
2022/08/08 05:18:10;;;;;;;1.90;1.90;;;;;;;;;;1871282;74;26209;-88
2022/08/08 05:20:38;;;;;;;1.80;1.80;;;;;;;;;;1870206;74;26268;-86
2022/08/08 05:23:05;;;;;;;1.67;1.67;;;;;;;;;;1872447;74;26234;-87
2022/08/08 05:25:33;;;;;;;1.77;1.77;;;;;;;;;;1865535;74;26265;-87
2022/08/08 05:28:00;;;;;;;2.17;1.98;;;;;;;;;;1866581;74;26222;-88
2022/08/08 05:30:27;;;;;;;1.75;1.75;;;;;;;;;;1867676;74;26338;-86
2022/08/08 05:32:54;;;;;;;1.95;1.90;;;;;;;;;;1865837;74;26299;-88
2022/08/08 05:35:22;;;;;;;1.70;1.70;;;;;;;;;;1869391;74;26309;-88
2022/08/08 05:37:54;;;;;;;2.00;1.90;;;;;;;;;;1873807;74;26227;-89
2022/08/08 05:40:21;;;;;;;2.00;1.90;;;;;;;;;;1869448;74;27076;-89
2022/08/08 05:42:53;;;;;;;1.67;1.67;;;;;;;;;;1873191;74;26315;-87
2022/08/08 05:45:22;;;;;;;1.87;1.87;;;;;;;;;;1870033;74;26266;-87
2022/08/08 05:47:50;;;;;;;2.17;2.00;;;;;;;;;;1863369;75;26285;-88
2022/08/08 05:50:17;;;;;;;1.90;1.90;;;;;;;;;;1874911;75;26280;-87
2022/08/08 05:52:46;;;;;;;1.87;1.87;;;;;;;;;;1875629;75;26216;-89
2022/08/08 05:55:13;;;;;;;1.90;1.90;;;;;;;;;;1858364;74;26295;-88
2022/08/08 05:57:41;;;;;;;1.80;1.80;;;;;;;;;;1866378;75;26233;-87
2022/08/08 06:00:09;;;;;;;1.90;1.90;;;;;;;;;;1875978;74;26990;-87
2022/08/08 06:05:22;;;;;;;1.77;1.77;;;;;;;;;;1871932;74;26712;-87
2022/08/08 06:07:50;;;;;;;1.80;1.80;;;;;;;;;;1864617;75;26820;-88
2022/08/08 06:10:19;;;;;;;1.90;1.90;;;;;;;;;;1878917;75;26203;-88
2022/08/08 06:12:47;;;;;;;1.82;1.80;;;;;;;;;;1869712;74;26673;-88
2022/08/08 06:15:16;;;;;;;1.72;1.72;;;;;;;;;;1863878;75;26343;-88
2022/08/08 06:17:43;;;;;;;1.85;1.85;;;;;;;;;;1870806;75;26246;-87
2022/08/08 06:20:11;;;;;;;2.47;1.87;;;;;;;;;;1871523;75;26249;-88
2022/08/08 06:22:39;;;;;;;1.80;1.80;;;;;;;;;;1886780;75;26276;-87
2022/08/08 06:25:07;;;;;;;1.80;1.80;;;;;;;;;;1874886;75;26237;-88
2022/08/08 06:27:39;;;;;;;1.92;1.82;;;;;;;;;;1868759;75;26820;-87
2022/08/08 06:30:08;;;;;;;2.00;2.00;;;;;;;;;;1866093;74;26364;-88
2022/08/08 06:32:39;;;;;;;1.90;1.82;;;;;;;;;;1869810;75;26256;-87
2022/08/08 06:35:09;;;;;;;1.90;1.90;;;;;;;;;;1857272;75;26231;-88
2022/08/08 06:37:37;;;;;;;1.90;1.90;;;;;;;;;;1878451;75;26237;-88
2022/08/08 06:40:06;;;;;;;1.85;1.85;;;;;;;;;;1868357;74;26320;-88
2022/08/08 06:42:35;;;;;;;1.80;1.80;;;;;;;;;;1878738;74;26342;-88
2022/08/08 06:45:06;;;;;;;1.75;1.75;;;;;;;;;;1878192;74;26308;-88
2022/08/08 06:47:34;;;;;;;1.90;1.90;;;;;;;;;;1873203;75;26340;-87
2022/08/08 06:50:02;;;;;;;1.90;1.90;;;;;;;;;;1871251;75;26327;-88
2022/08/08 06:52:30;;;;;;;1.95;1.95;;;;;;;;;;1873727;75;26282;-87
2022/08/08 06:54:59;;;;;;;1.80;1.80;;;;;;;;;;1876913;75;26238;-87
2022/08/08 06:57:27;;;;;;;2.15;2.05;;;;;;;;;;1870856;75;26260;-87
2022/08/08 06:59:54;;;;;;;2.05;1.98;;;;;;;;;;1866173;75;26297;-88
2022/08/08 07:02:26;;;;;;;1.90;1.80;;;;;;;;;;1870365;75;26744;-87
2022/08/08 07:05:01;;;;;;;1.67;1.67;;;;;;;;;;1870852;74;26155;-88
2022/08/08 07:07:30;;;;;;;1.80;1.80;;;;;;;;;;1859786;74;26648;-89
2022/08/08 07:10:04;;;;;;;1.92;1.92;;;;;;;;;;1874177;75;26655;-88
2022/08/08 07:12:34;;;;;;;1.85;1.85;;;;;;;;;;1857158;75;26377;-88
2022/08/08 07:15:05;;;;;;;2.10;2.00;;;;;;;;;;1871158;75;26211;-87
2022/08/08 07:17:34;;;;;;;2.30;2.10;;;;;;;;;;1867679;75;26253;-88
2022/08/08 07:20:06;;;;;;;1.90;1.90;;;;;;;;;;1877900;75;26348;-88
2022/08/08 07:22:35;;;;;;;1.92;1.82;;;;;;;;;;1875566;75;26230;-88
2022/08/08 07:25:03;;;;;;;1.80;1.80;;;;;;;;;;1879985;75;26174;-88
2022/08/08 07:27:36;;;;;;;1.90;1.80;;;;;;;;;;1870510;75;26244;-88
2022/08/08 07:30:05;;;;;;;1.85;1.85;;;;;;;;;;1875115;74;26225;-88
2022/08/08 07:32:32;;;;;;;2.00;1.90;;;;;;;;;;1868746;74;26254;-88
2022/08/08 07:35:00;;;;;;;1.80;1.80;;;;;;;;;;1868346;74;26223;-88
2022/08/08 07:37:28;;;;;;;1.75;1.70;;;;;;;;;;1872618;75;26293;-88
2022/08/08 07:39:57;;;;;;;1.70;1.70;;;;;;;;;;1878431;75;26224;-88
2022/08/08 07:42:24;;;;;;;1.80;1.80;;;;;;;;;;1878302;74;26343;-87
2022/08/08 07:44:52;;;;;;;1.77;1.77;;;;;;;;;;1875173;74;26808;-88
2022/08/08 07:47:19;;;;;;;2.65;1.98;;;;;;;;;;1880402;74;26357;-88
2022/08/08 07:49:46;;;;;;;1.90;1.80;;;;;;;;;;1873362;75;26262;-90
2022/08/08 07:52:14;;;;;;;2.17;1.90;;;;;;;;;;1873632;75;26749;-88
2022/08/08 07:54:43;;;;;;;1.80;1.80;;;;;;;;;;1872324;74;26231;-88
2022/08/08 07:57:27;;;;;;;2.67;2.35;;;;;;;;;;1865132;75;26273;-87
2022/08/08 08:00:05;;;;;;;2.90;1.80;;;;;;;;;;1884805;74;26238;-87
2022/08/08 08:02:40;;;;;;;1.70;1.70;;;;;;;;;;1869911;74;26218;-87
2022/08/08 08:05:09;;;;;;;1.72;1.70;;;;;;;;;;1879287;75;26324;-88
2022/08/08 08:07:36;;;;;;;1.80;1.70;;;;;;;;;;1863436;75;26313;-87
2022/08/08 08:10:04;;;;;;;3.98;2.00;;;;;;;;;;1874944;74;26924;-86
2022/08/08 08:12:32;;;;;;;2.20;2.00;;;;;;;;;;1875114;74;26363;-88
2022/08/08 08:15:04;;;;;;;3.25;1.90;;;;;;;;;;1880200;75;26737;-87
2022/08/08 08:17:31;;;;;;;1.77;1.67;;;;;;;;;;1878952;74;26728;-86
2022/08/08 08:20:00;;;;;;;1.90;1.80;;;;;;;;;;1860702;75;26202;-87
2022/08/08 08:22:27;;;;;;;6.10;2.30;;;;;;;;;;1865025;74;26299;-89
2022/08/08 08:24:54;;;;;;;2.98;1.90;;;;;;;;;;1866589;75;26698;-87
2022/08/08 08:27:22;;;;;;;2.00;1.85;;;;;;;;;;1868862;75;26785;-87
2022/08/08 08:29:49;;;;;;;2.72;2.30;;;;;;;;;;1869596;74;26750;-87
2022/08/08 08:32:16;;;;;;;2.00;1.90;;;;;;;;;;1864922;75;26256;-87
2022/08/08 08:34:44;;;;;;;4.22;2.00;;;;;;;;;;1881089;74;26720;-88
2022/08/08 08:37:11;;;;;;;1.90;1.90;;;;;;;;;;1872092;74;26249;-88
2022/08/08 08:39:38;;;;;;;2.27;2.02;;;;;;;;;;1865489;75;26264;-87
2022/08/08 08:42:06;;;;;;;4.92;2.05;;;;;;;;;;1861291;75;26255;-87
2022/08/08 08:44:33;;;;;;;2.65;2.08;;;;;;;;;;1867531;75;26218;-88
2022/08/08 08:47:02;;;;;;;5.85;2.10;;;;;;;;;;1875368;75;26237;-87
2022/08/08 08:49:29;;;;;;;1.82;1.80;;;;;;;;;;1864369;75;26273;-87
2022/08/08 08:51:58;;;;;;;2.45;2.08;;;;;;;;;;1885555;75;26699;-88
2022/08/08 08:54:26;;;;;;;1.92;1.82;;;;;;;;;;1869760;75;26250;-87
2022/08/08 08:56:54;;;;;;;1.90;1.80;;;;;;;;;;1865948;74;26264;-87
2022/08/08 08:59:21;;;;;;;2.98;1.98;;;;;;;;;;1873027;75;26243;-88
2022/08/08 09:01:50;;;;;;;1.90;1.80;;;;;;;;;;1862343;74;26297;-88
2022/08/08 09:04:22;;;;;;;2.20;1.95;;;;;;;;;;1871022;74;26422;-89
2022/08/08 09:06:50;;;;;;;2.75;1.80;;;;;;;;;;1876269;75;26753;-89
2022/08/08 09:09:19;;;;;;;1.77;1.67;;;;;;;;;;1839768;75;26611;-88
2022/08/08 09:11:47;;;;;;;2.80;1.77;;;;;;;;;;1875969;75;26258;-89
2022/08/08 09:14:15;;;;;;;1.90;1.80;;;;;;;;;;1878365;74;26343;-89
2022/08/08 09:16:43;;;;;;;1.90;1.80;;;;;;;;;;1880736;75;26253;-88
2022/08/08 09:19:11;;;;;;;1.90;1.80;;;;;;;;;;1872895;74;26355;-88
2022/08/08 09:21:39;;;;;;;3.15;1.60;;;;;;;;;;1872019;75;26220;-88
2022/08/08 09:24:07;;;;;;;1.42;1.37;;;;;;;;;;1866532;75;26175;-85
2022/08/08 09:26:42;;;;;;;1.80;1.70;;;;;;;;;;1888007;74;26367;-88
2022/08/08 09:29:11;;;;;;;1.62;1.52;;;;;;;;;;1876258;74;26418;-88
2022/08/08 09:31:40;;;;;;;1.45;1.45;;;;;;;;;;1862029;75;26721;-87
2022/08/08 09:34:07;;;;;;;1.62;1.52;;;;;;;;;;1873925;74;26804;-87
2022/08/08 09:36:36;;;;;;;1.57;1.50;;;;;;;;;;1883029;74;26261;-89
2022/08/08 09:39:04;;;;;;;3.45;1.60;;;;;;;;;;1881923;75;26271;-86
2022/08/08 09:41:36;;;;;;;1.62;1.60;;;;;;;;;;1883148;74;26198;-87
2022/08/08 09:44:05;;;;;;;1.40;1.40;;;;;;;;;;1880066;74;26784;-85
2022/08/08 09:46:34;;;;;;;1.37;1.30;;;;;;;;;;1866945;74;26732;-87
2022/08/08 09:49:02;;;;;;;6.37;1.32;;;;;;;;;;1881122;74;26293;-87
2022/08/08 09:51:30;;;;;;;3.55;1.60;;;;;;;;;;1870903;74;26323;-87
2022/08/08 09:53:59;;;;;;;1.77;1.67;;;;;;;;;;1883917;74;26205;-86
2022/08/08 09:56:28;;;;;;;1.70;1.60;;;;;;;;;;1868813;74;26246;-87
2022/08/08 09:59:03;;;;;;;2.00;1.75;;;;;;;;;;1873242;74;26326;-87
2022/08/08 10:01:32;;;;;;;1.72;1.62;;;;;;;;;;1880598;74;26242;-85
2022/08/08 10:04:00;;;;;;;1.70;1.60;;;;;;;;;;1864057;75;26221;-85
2022/08/08 10:06:27;;;;;;;1.90;1.80;;;;;;;;;;1884679;74;26193;-85
2022/08/08 10:08:55;;;;;;;1.80;1.70;;;;;;;;;;1895683;74;26262;-84
2022/08/08 10:11:23;;;;;;;1.67;1.57;;;;;;;;;;1878714;74;26215;-84
2022/08/08 10:13:54;;;;;;;1.80;1.70;;;;;;;;;;1900163;72;26283;-87
2022/08/08 10:16:22;;;;;;;1.60;1.60;;;;;;;;;;1880329;74;26219;-88
2022/08/08 10:18:49;;;;;;;2.67;1.40;;;;;;;;;;1882187;74;26161;-88
2022/08/08 10:21:18;;;;;;;1.47;1.37;;;;;;;;;;1865467;74;26202;-87
2022/08/08 10:23:46;;;;;;;3.02;1.60;;;;;;;;;;1881086;73;26243;-87
2022/08/08 10:26:21;;;;;;;1.65;1.55;;;;;;;;;;1886442;72;26143;-88
2022/08/08 10:28:55;;;;;;;2.25;1.40;;;;;;;;;;1872198;74;26177;-88
2022/08/08 10:34:10;;;;;;;1.70;1.60;;;;;;;;;;1872593;73;26202;-89
2022/08/08 10:36:39;;;;;;;2.80;1.60;;;;;;;;;;1898100;74;26734;-86
2022/08/08 10:39:08;;;;;;;3.33;1.50;;;;;;;;;;1891930;74;26679;-89
2022/08/08 10:41:36;;;;;;;1.42;1.40;;;;;;;;;;1885356;75;26280;-86
2022/08/08 10:44:05;;;;;;;1.67;1.40;;;;;;;;;;1889589;75;26219;-86
2022/08/08 10:46:34;;;;;;;2.80;1.55;;;;;;;;;;1886984;75;26171;-86
2022/08/08 10:49:01;;;;;;;1.40;1.35;;;;;;;;;;1895756;74;26717;-85
2022/08/08 10:51:29;;;;;;;1.42;1.42;;;;;;;;;;1861425;75;26289;-85
2022/08/08 10:53:57;;;;;;;3.92;1.37;;;;;;;;;;1871556;76;26668;-85
2022/08/08 10:56:24;;;;;;;1.40;1.30;;;;;;;;;;1882771;74;26247;-86
2022/08/08 10:58:58;;;;;;;1.50;1.40;;;;;;;;;;1868545;74;26756;-86
2022/08/08 11:01:29;;;;;;;1.10;1.10;;;;;;;;;;1888710;74;26674;-90
2022/08/08 11:03:59;;;;;;;1.60;1.50;;;;;;;;;;1871451;75;26221;-87
2022/08/08 11:06:30;;;;;;;1.22;1.22;;;;;;;;;;1880698;75;26231;-86
2022/08/08 11:09:03;;;;;;;1.42;1.42;;;;;;;;;;1871118;74;26252;-89
2022/08/08 11:11:41;;;;;;;1.20;1.20;;;;;;;;;;1856830;75;26358;-86
2022/08/08 11:14:09;;;;;;;1.35;1.30;;;;;;;;;;1877605;74;26028;-87
2022/08/08 11:16:38;;;;;;;1.20;1.20;;;;;;;;;;1877449;74;26194;-87
2022/08/08 11:19:06;;;;;;;1.25;1.25;;;;;;;;;;1884912;74;26269;-88
2022/08/08 11:21:40;;;;;;;1.80;1.40;;;;;;;;;;1868985;75;26233;-88
2022/08/08 11:24:07;;;;;;;1.10;1.10;;;;;;;;;;1877910;74;26245;-88
2022/08/08 11:26:35;;;;;;;1.40;1.30;;;;;;;;;;1897455;74;26338;-88
2022/08/08 11:29:03;;;;;;;1.70;1.30;;;;;;;;;;1872333;75;26332;-88
2022/08/08 11:31:32;;;;;;;1.20;1.20;;;;;;;;;;1870502;75;26210;-87
2022/08/08 11:34:02;;;;;;;1.00;1.00;;;;;;;;;;1860667;74;26191;-87
2022/08/08 11:36:30;;;;;;;1.27;1.10;;;;;;;;;;1895420;75;26194;-87
2022/08/08 11:38:57;;;;;;;1.25;1.17;;;;;;;;;;1884769;75;26306;-88
2022/08/08 11:41:25;;;;;;;1.20;1.20;;;;;;;;;;1861113;75;26269;-88
2022/08/08 11:43:56;;;;;;;1.37;1.37;;;;;;;;;;1889631;74;26246;-87
2022/08/08 11:46:23;;;;;;;1.20;1.20;;;;;;;;;;1882922;75;26262;-87
2022/08/08 11:48:51;;;;;;;1.10;1.10;;;;;;;;;;1881830;75;26232;-87
2022/08/08 11:51:20;;;;;;;1.10;1.10;;;;;;;;;;1884189;74;26211;-88
2022/08/08 11:53:47;;;;;;;1.05;1.05;;;;;;;;;;1870341;75;26237;-88
2022/08/08 11:56:19;;;;;;;1.00;1.00;;;;;;;;;;1874017;75;26272;-88
2022/08/08 11:58:46;;;;;;;1.20;1.20;;;;;;;;;;1863883;75;26339;-88
2022/08/08 12:01:14;;;;;;;1.10;1.10;;;;;;;;;;1871402;75;26358;-87
2022/08/08 12:03:46;;;;;;;1.32;1.22;;;;;;;;;;1870977;75;26858;-87
2022/08/08 12:06:13;;;;;;;1.27;1.20;;;;;;;;;;1853153;75;26232;-88
2022/08/08 12:08:41;;;;;;;2.08;1.10;;;;;;;;;;1857646;75;26333;-88
2022/08/08 12:11:16;;;;;;;1.15;1.15;;;;;;;;;;1868887;75;26207;-88
2022/08/08 12:13:44;;;;;;;1.20;1.10;;;;;;;;;;1866536;75;26999;-89
2022/08/08 12:16:12;;;;;;;1.10;1.10;;;;;;;;;;1863082;75;26339;-89
2022/08/08 12:18:49;;;;;;;1.05;1.05;;;;;;;;;;1878491;74;26860;-88
2022/08/08 12:21:21;;;;;;;1.05;1.00;;;;;;;;;;1851336;74;26212;-87
2022/08/08 12:23:48;;;;;;;1.10;1.10;;;;;;;;;;1883667;75;26222;-87
2022/08/08 12:26:18;;;;;;;2.98;1.10;;;;;;;;;;1876329;74;26340;-87
2022/08/08 12:28:56;;;;;;;0.95;0.95;;;;;;;;;;1869158;74;26283;-88
2022/08/08 12:31:33;;;;;;;1.00;1.00;;;;;;;;;;1850858;75;26252;-87
2022/08/08 12:34:01;;;;;;;1.20;1.20;;;;;;;;;;1863493;75;26265;-87
2022/08/08 12:36:39;;;;;;;1.05;1.05;;;;;;;;;;1867804;76;26209;-86
2022/08/08 12:39:07;;;;;;;1.10;1.10;;;;;;;;;;1868317;74;26245;-88
2022/08/08 12:41:35;;;;;;;1.07;1.07;;;;;;;;;;1873715;75;26234;-87
2022/08/08 12:44:06;;;;;;;1.37;1.10;;;;;;;;;;1871627;75;26692;-87
2022/08/08 12:46:33;;;;;;;1.05;1.00;;;;;;;;;;1855829;76;26288;-88
2022/08/08 12:49:02;;;;;;;0.90;0.90;;;;;;;;;;1875455;75;26317;-88
2022/08/08 12:51:43;;;;;;;0.90;0.90;;;;;;;;;;1878999;74;26190;-87
2022/08/08 12:54:12;;;;;;;1.17;1.02;;;;;;;;;;1873382;75;26269;-87
2022/08/08 12:56:39;;;;;;;0.90;0.90;;;;;;;;;;1877490;75;26367;-87
2022/08/08 12:59:17;;;;;;;1.00;1.00;;;;;;;;;;1875632;75;26746;-87
2022/08/08 13:01:51;;;;;;;1.30;1.10;;;;;;;;;;1877621;75;26328;-87
2022/08/08 13:04:20;;;;;;;1.10;1.10;;;;;;;;;;1878929;74;26702;-87
2022/08/08 13:06:54;;;;;;;1.00;1.00;;;;;;;;;;1883246;75;26291;-89
2022/08/08 13:09:29;;;;;;;0.90;0.90;;;;;;;;;;1877058;74;26268;-90
2022/08/08 13:11:56;;;;;;;2.85;1.00;;;;;;;;;;1896512;74;26226;-87
2022/08/08 13:14:25;;;;;;;1.95;1.00;;;;;;;;;;1879771;75;26371;-88
2022/08/08 13:16:52;;;;;;;1.25;0.98;;;;;;;;;;1873512;75;26253;-88
2022/08/08 13:19:21;;;;;;;1.00;1.00;;;;;;;;;;1870491;75;26710;-88
2022/08/08 13:21:48;;;;;;;1.10;1.10;;;;;;;;;;1877394;74;26246;-88
2022/08/08 13:24:16;;;;;;;1.67;1.20;;;;;;;;;;1869089;74;26264;-89
2022/08/08 13:26:43;;;;;;;3.17;1.05;;;;;;;;;;1872696;75;26901;-87
2022/08/08 13:29:11;;;;;;;1.25;1.07;;;;;;;;;;1870007;75;26766;-88
2022/08/08 13:31:50;;;;;;;6.37;1.55;;;;;;;;;;1880513;74;26236;-88
2022/08/08 13:34:19;;;;;;;6.37;1.20;;;;;;;;;;1886139;75;26238;-88
2022/08/08 13:36:46;;;;;;;20.88;2.37;;;;;;;;;;1869458;75;26254;-88
2022/08/08 13:39:15;;;;;;;2.20;1.25;;;;;;;;;;1879006;75;26250;-88
2022/08/08 13:41:42;;;;;;;1.52;1.05;;;;;;;;;;1895307;74;26242;-88
2022/08/08 13:44:10;;;;;;;4.33;1.12;;;;;;;;;;1885450;74;26243;-89
2022/08/08 13:46:38;;;;;;;1.82;1.00;;;;;;;;;;1885702;74;26261;-88
2022/08/08 13:49:17;;;;;;;2.37;1.20;;;;;;;;;;1887185;74;26273;-90
2022/08/08 13:51:52;;;;;;;1.95;1.00;;;;;;;;;;1878044;75;26257;-90
2022/08/08 13:54:21;;;;;;;1.90;0.90;;;;;;;;;;1880079;74;26246;-90
2022/08/08 13:56:50;;;;;;;1.82;1.00;;;;;;;;;;1886666;75;26706;-91
2022/08/08 13:59:18;;;;;;;1.72;1.05;;;;;;;;;;1892567;74;26778;-88
2022/08/08 14:01:47;;;;;;;1.00;1.00;;;;;;;;;;1875158;75;26339;-88
2022/08/08 14:04:16;;;;;;;4.90;0.93;;;;;;;;;;1861191;74;26200;-86
2022/08/08 14:06:44;;;;;;;1.00;1.00;;;;;;;;;;1870943;75;26355;-88
2022/08/08 14:09:11;;;;;;;0.98;0.98;;;;;;;;;;1865264;75;26200;-89
2022/08/08 14:11:38;;;;;;;3.92;1.12;;;;;;;;;;1864139;74;26232;-86
2022/08/08 14:14:06;;;;;;;3.15;1.10;;;;;;;;;;1836734;76;26600;-86
2022/08/08 14:16:33;;;;;;;4.40;1.12;;;;;;;;;;1880434;75;26308;-87
2022/08/08 14:19:01;;;;;;;15.93;1.45;;;;;;;;;;1868523;75;26334;-88
2022/08/08 14:21:33;;;;;;;10.08;1.80;;;;;;;;;;1877430;74;26219;-90
2022/08/08 14:24:00;;;;;;;11.95;1.57;;;;;;;;;;1879226;75;26225;-91
2022/08/08 14:26:28;;;;;;;12.45;1.75;;;;;;;;;;1882713;75;26272;-92
2022/08/08 14:28:56;;;;;;;11.97;1.92;;;;;;;;;;1874991;74;26201;-88
2022/08/08 14:31:25;;;;;;;13.60;1.92;;;;;;;;;;1864154;75;26321;-88
2022/08/08 14:33:54;;;;;;;8.70;1.72;;;;;;;;;;1876097;75;26248;-89
2022/08/08 14:36:34;;;;;;;9.80;1.42;;;;;;;;;;1870260;75;26221;-89
2022/08/08 14:39:02;;;;;;;12.30;1.70;;;;;;;;;;1882984;75;26777;-88
2022/08/08 14:41:29;;;;;;;6.12;1.82;;;;;;;;;;1884551;74;26325;-87
2022/08/08 14:43:57;;;;;;;10.65;1.60;;;;;;;;;;1884841;75;26766;-89
2022/08/08 14:46:29;;;;;;;6.12;1.47;;;;;;;;;;1881408;74;27101;-89
2022/08/08 14:48:57;;;;;;;9.75;1.50;;;;;;;;;;1860627;75;26748;-91
2022/08/08 14:51:26;;;;;;;4.67;1.50;;;;;;;;;;1881337;74;26246;-87
2022/08/08 14:53:59;;;;;;;8.93;1.55;;;;;;;;;;1882658;74;26266;-86
2022/08/08 14:56:22;;;;;;;18.12;1.60;;;;;;;;;;1861251;74;26265;-87
2022/08/08 14:58:49;;;;;;;3.87;1.37;;;;;;;;;;1886984;74;26229;-88
2022/08/08 15:01:18;;;;;;;2.98;1.47;;;;;;;;;;1881678;74;26250;-87
2022/08/08 15:03:46;;;;;;;1.10;1.00;;;;;;;;;;1882023;75;26231;-87
2022/08/08 15:06:13;;;;;;;2.72;1.42;;;;;;;;;;1877287;75;26785;-87
2022/08/08 15:08:40;;;;;;;4.90;1.17;;;;;;;;;;1870431;75;26739;-86
2022/08/08 15:11:09;;;;;;;2.83;1.12;;;;;;;;;;1866148;75;26256;-86
2022/08/08 15:13:39;;;;;;;2.08;1.30;;;;;;;;;;1864505;74;26261;-86
2022/08/08 15:16:07;;;;;;;4.28;1.20;;;;;;;;;;1875728;75;26270;-86